Aeroporto :
LOGIN :

Iscrizione | Disclaimer

   EN    FR    IT 

 










Sommario :    VFR   VFR Marginale   IFR   IFR Intensivo   IFR Molto Intensivo
Visibilità : 
Base nubi : 
>= 8 km
>= 3000ft
5 / 8 km
1000 / 3000 ft
1500m / 5 km
500 / 1000 ft
800 / 1500m
200 / 500 ft
< 800m
< 200 ft
Simboli :   Temporali  Nebbia  Neve Forte  Precipitazioni Forti  Vento > 20 kt
SIGMETs :   Varie  Temporali  Ghiacco  Turbolenza  Onda orograficha  Ceneri Vulcaniche






- Altitudine del aeroporto : 336 ft
- Codice IATA : GCI


EGJB - Guernsey

ULTIMO METAR :
  • 232050Z VRB02KT 9999 VCSH FEW018CB SCT024 05/02 Q0992

METARs OBSOLETI :
  • 232020Z 26003KT 9999 VCSH FEW018CB SCT024 04/02 Q0991
  • 231950Z 26011KT 9999 VCSH FEW018CB SCT024 05/02 Q0991
  • 231920Z 27012KT 9999 -SHRA FEW016CB SCT024 05/02 Q0991
  • 231850Z 25009KT 9999 VCSH FEW016CB SCT024 05/01 Q0991
  • 231820Z 26013KT 9999 VCSH FEW016CB SCT024 06/01 Q0990
  • 231750Z 27012KT 9999 FEW016CB 06/01 Q0990
  • 231720Z 27015KT 9999 FEW016CB 06/M00 Q0990
  • 231650Z 25010KT 9999 VCSH FEW016CB SCT024 06/02 Q0990
  • 231620Z 26013KT 9999 VCSH FEW016CB 07/01 Q0990

TAF TAF EGJB
Valido dal 23 a 21 ore il 24 a 06 ore UTC


231956Z 2321/2406 27012KT 9999 FEW016CB SCT025
TEMPO 2321/2406 25015G25KT 8000 SHRA BKN012CB
PROB30
TEMPO 2321/2406 4000 +TSRAGS BKN008
ATIS : +44 1481 238 957



MetMap, La meteo Aeronautica in un colpo d'occhio ! - Copyright ORBIFLY Dicembre 2007 - Disclaimer

ORBIFLY MET'MAP TEAM :

Programmazione e sviluppo : Alexandra Zaïnal
Concezione : Baudouin d'Aumeries
Supporto tecnico e logistico : Manuel Goepfert
Aiuto : Marc-Olivier Méhu
Aiuto per la traduzione : Arnaldo La Scala




FONTI E CREDITI :

   NOAA